Time;durP1;ratioP1;P1;durP2;ratioP2;P2;SDS_P1;SDS_P2;PMS_P1;PMS_P2;Temp;Humidity;BMP_temperature;BMP_pressure;BME280_temperature;BME280_humidity;BME280_pressure;Samples;Min_cycle;Max_cycle;Signal;HPM_P1;HPM_P2
2023/05/17 03:28:11;;;;;;;15.10;14.30;;;6.10;99.90;;;;;;5944634;23;20401;-70
2023/05/17 03:30:37;;;;;;;14.60;14.00;;;6.20;99.90;;;;;;4949960;29;20460;-70
2023/05/17 03:33:04;;;;;;;16.07;15.10;;;6.10;99.90;;;;;;4949662;29;20499;-71
2023/05/17 03:35:31;;;;;;;15.80;15.10;;;6.10;99.90;;;;;;4949910;29;20515;-70
2023/05/17 03:37:58;;;;;;;15.57;14.97;;;6.00;99.90;;;;;;4950419;29;20973;-70
2023/05/17 03:40:24;;;;;;;15.13;14.53;;;6.00;99.90;;;;;;4952555;28;20850;-70
2023/05/17 03:42:51;;;;;;;16.70;15.80;;;6.10;99.90;;;;;;4953717;29;20458;-70
2023/05/17 03:45:19;;;;;;;16.70;15.80;;;6.00;99.90;;;;;;4953612;29;20800;-70
2023/05/17 03:47:46;;;;;;;16.83;15.83;;;6.00;99.90;;;;;;4953688;29;20460;-69
2023/05/17 03:50:13;;;;;;;15.50;14.80;;;6.00;99.90;;;;;;4962518;28;20566;-70
2023/05/17 03:52:40;;;;;;;14.50;13.77;;;6.00;99.90;;;;;;4973189;28;20492;-70
2023/05/17 03:55:08;;;;;;;15.87;14.97;;;6.00;99.90;;;;;;4973095;28;20451;-70
2023/05/17 03:57:34;;;;;;;15.50;14.80;;;6.10;99.90;;;;;;4973404;28;21025;-69
2023/05/17 04:00:05;;;;;;;16.17;15.37;;;6.10;99.90;;;;;;4973042;28;20812;-70
2023/05/17 04:02:33;;;;;;;15.80;15.10;;;6.10;99.90;;;;;;4972858;28;20455;-70
2023/05/17 04:04:59;;;;;;;15.07;14.23;;;6.20;99.90;;;;;;4972957;28;20451;-70
2023/05/17 04:07:26;;;;;;;15.87;15.17;;;6.30;99.90;;;;;;4972856;28;20451;-71
2023/05/17 04:09:53;;;;;;;15.47;14.67;;;6.40;99.90;;;;;;4972780;28;20460;-70
2023/05/17 04:12:20;;;;;;;16.93;15.40;;;6.40;99.90;;;;;;4972730;28;20819;-70
2023/05/17 04:14:47;;;;;;;15.70;15.10;;;6.50;99.90;;;;;;4972522;28;20493;-70
2023/05/17 04:17:13;;;;;;;16.50;15.60;;;6.60;99.90;;;;;;4972585;28;20825;-70
2023/05/17 04:19:41;;;;;;;15.90;15.10;;;6.60;99.90;;;;;;4972492;28;20960;-70
2023/05/17 04:22:08;;;;;;;15.20;14.33;;;6.70;99.90;;;;;;4972207;28;20458;-70
2023/05/17 04:24:35;;;;;;;18.17;17.00;;;6.80;99.90;;;;;;4972209;28;20760;-70
2023/05/17 04:27:03;;;;;;;15.83;14.97;;;7.00;99.90;;;;;;4968041;28;20479;-69
2023/05/17 04:29:29;;;;;;;15.70;14.70;;;7.10;99.90;;;;;;4952818;29;20957;-70
2023/05/17 04:31:56;;;;;;;15.47;14.70;;;7.30;99.90;;;;;;4953044;29;20449;-69
2023/05/17 04:34:23;;;;;;;27.13;14.70;;;7.40;99.90;;;;;;4952677;29;20598;-70
2023/05/17 04:36:51;;;;;;;14.37;13.77;;;7.50;99.90;;;;;;4952562;29;20551;-70
2023/05/17 04:39:18;;;;;;;15.07;14.10;;;7.60;99.90;;;;;;4952875;29;20507;-70
2023/05/17 04:41:45;;;;;;;14.47;13.37;;;7.70;99.90;;;;;;4952893;29;20456;-70
2023/05/17 04:44:12;;;;;;;14.57;13.67;;;7.90;99.90;;;;;;4952931;29;20909;-71
2023/05/17 04:46:38;;;;;;;13.70;12.90;;;8.10;99.90;;;;;;4952680;29;20467;-73
2023/05/17 04:49:06;;;;;;;14.87;13.97;;;8.40;99.90;;;;;;4946420;29;20449;-72
2023/05/17 04:51:32;;;;;;;12.57;12.07;;;8.70;99.90;;;;;;4932192;29;20568;-71
2023/05/17 04:54:00;;;;;;;13.13;12.53;;;9.00;99.90;;;;;;4933464;29;20639;-71
2023/05/17 04:56:27;;;;;;;12.70;12.10;;;9.20;99.90;;;;;;4933730;29;20463;-71
2023/05/17 04:58:54;;;;;;;11.50;11.00;;;9.50;99.90;;;;;;4933348;29;20458;-69
2023/05/17 05:01:21;;;;;;;11.47;10.80;;;9.60;99.90;;;;;;4933333;29;20453;-71
2023/05/17 05:03:48;;;;;;;13.20;12.10;;;9.70;99.90;;;;;;4933366;29;20537;-71
2023/05/17 05:06:15;;;;;;;12.43;11.73;;;9.90;99.90;;;;;;4933515;29;20517;-70
2023/05/17 05:08:42;;;;;;;11.17;10.47;;;10.10;99.90;;;;;;4933449;29;20548;-71
2023/05/17 05:11:10;;;;;;;11.37;10.70;;;10.40;99.90;;;;;;4933162;29;20944;-72
2023/05/17 05:13:37;;;;;;;11.60;10.80;;;10.60;99.90;;;;;;4932759;29;20545;-72
2023/05/17 05:16:05;;;;;;;12.07;11.37;;;10.70;99.90;;;;;;4933073;29;20464;-73
2023/05/17 05:18:32;;;;;;;12.67;11.63;;;10.60;99.90;;;;;;4933046;29;20524;-73
2023/05/17 05:20:59;;;;;;;12.27;11.67;;;10.50;99.90;;;;;;4931284;29;20492;-74
2023/05/17 05:23:25;;;;;;;12.20;11.30;;;10.30;99.90;;;;;;4932540;29;20449;-74
2023/05/17 05:25:52;;;;;;;11.47;10.97;;;10.20;99.90;;;;;;4932711;29;20871;-74
2023/05/17 05:28:20;;;;;;;12.63;11.83;;;10.20;99.90;;;;;;4932468;29;20553;-74
2023/05/17 05:30:47;;;;;;;11.40;10.60;;;10.20;99.90;;;;;;4932874;29;20552;-74
2023/05/17 05:33:14;;;;;;;12.60;11.80;;;10.40;99.90;;;;;;4932730;29;20461;-73
2023/05/17 05:35:40;;;;;;;10.97;10.57;;;10.70;99.90;;;;;;4932712;29;20461;-74
2023/05/17 05:38:07;;;;;;;13.53;12.63;;;11.00;99.90;;;;;;4932538;29;20876;-74
2023/05/17 05:40:34;;;;;;;10.37;9.87;;;11.40;99.90;;;;;;4932576;29;20548;-76
2023/05/17 05:43:00;;;;;;;11.47;10.77;;;11.70;99.90;;;;;;4932743;29;20460;-75
2023/05/17 05:45:28;;;;;;;12.03;11.10;;;12.20;99.90;;;;;;4932747;29;20446;-76
2023/05/17 05:47:55;;;;;;;12.80;12.10;;;12.80;99.90;;;;;;4932605;29;20770;-76
2023/05/17 05:50:22;;;;;;;13.03;12.33;;;13.20;99.90;;;;;;4932176;29;20955;-76
2023/05/17 05:52:48;;;;;;;12.13;11.33;;;13.30;99.90;;;;;;4932392;29;20805;-76
2023/05/17 05:55:15;;;;;;;11.80;11.30;;;13.80;99.90;;;;;;4932378;29;20875;-74
2023/05/17 05:57:42;;;;;;;12.43;11.23;;;14.10;98.30;;;;;;4932452;29;20916;-75
2023/05/17 06:00:10;;;;;;;11.47;10.77;;;14.10;98.60;;;;;;4932093;29;20975;-75
2023/05/17 06:02:38;;;;;;;11.67;10.87;;;14.20;97.90;;;;;;4928840;29;20466;-74
2023/05/17 06:05:06;;;;;;;11.70;11.10;;;14.00;97.90;;;;;;4926991;29;20482;-75
2023/05/17 06:07:32;;;;;;;13.30;12.30;;;13.90;98.30;;;;;;4932269;29;20995;-75
2023/05/17 06:09:59;;;;;;;11.23;10.70;;;14.00;98.00;;;;;;4932389;29;20460;-74
2023/05/17 06:12:26;;;;;;;11.53;10.77;;;14.10;98.30;;;;;;4932347;29;20450;-76
2023/05/17 06:14:52;;;;;;;11.67;10.87;;;14.20;98.00;;;;;;4932122;29;20552;-75
2023/05/17 06:17:20;;;;;;;13.53;12.77;;;14.40;97.40;;;;;;4931910;29;20450;-75
2023/05/17 06:19:48;;;;;;;11.30;10.80;;;14.80;97.40;;;;;;4932027;29;20461;-76
2023/05/17 06:22:15;;;;;;;11.93;11.10;;;14.90;95.90;;;;;;4932282;29;20560;-75
2023/05/17 06:24:42;;;;;;;12.17;11.43;;;15.30;95.20;;;;;;4932262;29;20544;-75
2023/05/17 06:27:08;;;;;;;11.93;11.40;;;15.40;95.00;;;;;;4931819;29;20469;-75
2023/05/17 06:29:35;;;;;;;11.47;10.43;;;15.80;94.80;;;;;;4931917;29;20485;-75
2023/05/17 06:32:02;;;;;;;10.97;10.47;;;16.00;94.00;;;;;;4932162;29;20577;-74
2023/05/17 06:34:28;;;;;;;12.00;11.33;;;15.70;93.40;;;;;;4932409;29;21022;-74
2023/05/17 06:36:56;;;;;;;12.60;11.57;;;15.70;93.80;;;;;;4932438;29;20457;-75
2023/05/17 06:39:23;;;;;;;12.33;11.70;;;15.90;93.50;;;;;;4932017;29;20449;-75
2023/05/17 06:41:50;;;;;;;12.30;11.70;;;15.80;93.70;;;;;;4932067;29;20483;-73
2023/05/17 06:44:16;;;;;;;12.07;11.30;;;16.20;93.20;;;;;;4931983;29;21007;-74
2023/05/17 06:46:43;;;;;;;14.23;13.00;;;16.50;92.70;;;;;;4932014;29;20459;-74
2023/05/17 06:49:10;;;;;;;12.27;11.57;;;16.90;92.30;;;;;;4931813;29;20534;-75
2023/05/17 06:51:36;;;;;;;12.70;11.90;;;17.00;91.50;;;;;;4931519;29;20458;-75
2023/05/17 06:54:05;;;;;;;12.27;11.50;;;17.30;91.30;;;;;;4931351;29;20489;-76
2023/05/17 06:56:31;;;;;;;14.47;13.37;;;17.50;91.20;;;;;;4931258;29;20489;-73
2023/05/17 06:58:58;;;;;;;11.80;10.83;;;17.10;91.10;;;;;;4931638;29;20950;-75
2023/05/17 07:01:25;;;;;;;11.70;11.03;;;17.10;90.80;;;;;;4931757;29;20453;-74
2023/05/17 07:03:51;;;;;;;11.53;10.93;;;17.00;91.00;;;;;;4931609;29;20461;-75
2023/05/17 07:06:18;;;;;;;11.80;11.13;;;17.30;91.10;;;;;;4931664;29;20560;-73
2023/05/17 07:08:45;;;;;;;11.33;10.63;;;17.10;90.30;;;;;;4931767;29;20462;-74
2023/05/17 07:11:13;;;;;;;11.97;11.07;;;16.90;90.30;;;;;;4931382;29;20983;-74
2023/05/17 07:13:40;;;;;;;11.67;11.07;;;17.00;90.80;;;;;;4930799;29;20457;-75
2023/05/17 07:16:07;;;;;;;12.23;11.50;;;17.50;90.00;;;;;;4931206;29;20457;-75
2023/05/17 07:18:34;;;;;;;13.17;12.07;;;17.80;88.60;;;;;;4931637;29;20461;-74
2023/05/17 07:21:01;;;;;;;11.53;10.83;;;18.00;87.80;;;;;;4931631;29;20576;-75
2023/05/17 07:23:27;;;;;;;12.00;11.10;;;17.50;87.00;;;;;;4931741;29;20461;-75
2023/05/17 07:25:54;;;;;;;11.73;11.00;;;17.30;88.60;;;;;;4931492;29;20509;-73
2023/05/17 07:28:22;;;;;;;13.03;12.10;;;17.20;88.70;;;;;;4931027;29;20527;-74
2023/05/17 07:30:49;;;;;;;11.17;10.57;;;17.10;89.50;;;;;;4931363;29;20461;-75
2023/05/17 07:33:15;;;;;;;10.60;10.20;;;17.50;90.00;;;;;;4931404;29;20461;-75
2023/05/17 07:35:42;;;;;;;12.20;11.60;;;18.00;88.90;;;;;;4931685;29;20497;-75
2023/05/17 07:38:09;;;;;;;13.13;12.23;;;18.10;87.60;;;;;;4931451;29;20457;-75
2023/05/17 07:40:36;;;;;;;12.30;11.60;;;18.30;87.30;;;;;;4931002;29;20461;-75
2023/05/17 07:43:02;;;;;;;12.53;11.93;;;18.00;86.40;;;;;;4930732;29;20561;-74
2023/05/17 07:45:30;;;;;;;12.93;12.10;;;17.20;89.00;;;;;;4931077;29;20453;-74
2023/05/17 07:47:57;;;;;;;12.73;11.93;;;17.10;90.10;;;;;;4931165;29;20630;-76
2023/05/17 07:50:24;;;;;;;13.37;12.27;;;17.10;90.70;;;;;;4931347;29;20453;-74
2023/05/17 07:52:51;;;;;;;14.17;13.07;;;17.10;90.20;;;;;;4931305;29;20722;-74
2023/05/17 07:55:19;;;;;;;12.30;11.60;;;17.50;90.40;;;;;;4931054;29;20576;-75
2023/05/17 07:57:47;;;;;;;12.30;11.70;;;17.30;90.10;;;;;;4930679;29;20464;-77
2023/05/17 08:00:18;;;;;;;13.33;12.40;;;17.30;90.40;;;;;;4931294;29;20564;-75
2023/05/17 08:02:46;;;;;;;12.57;11.70;;;17.40;90.50;;;;;;4931092;29;20528;-74
2023/05/17 08:05:12;;;;;;;13.27;12.47;;;18.00;90.50;;;;;;4931232;29;20504;-74
2023/05/17 08:07:39;;;;;;;13.30;12.40;;;18.60;88.20;;;;;;4945849;29;20467;-73
2023/05/17 08:10:07;;;;;;;13.27;12.53;;;18.80;86.80;;;;;;4949711;29;20962;-74
2023/05/17 08:12:33;;;;;;;13.73;12.90;;;18.30;87.30;;;;;;4941379;29;20444;-75
2023/05/17 08:15:00;;;;;;;14.50;13.30;;;18.60;87.90;;;;;;4949198;29;20583;-74
2023/05/17 08:17:27;;;;;;;13.27;12.63;;;18.80;85.30;;;;;;4949339;29;20459;-75
2023/05/17 08:19:55;;;;;;;13.23;12.63;;;19.20;85.30;;;;;;4949251;29;20846;-75
2023/05/17 08:22:22;;;;;;;14.67;13.77;;;20.20;85.30;;;;;;4949828;29;20464;-75
2023/05/17 08:24:48;;;;;;;15.17;13.97;;;20.20;80.10;;;;;;4949851;29;20770;-74
2023/05/17 08:27:15;;;;;;;13.97;13.17;;;20.10;81.30;;;;;;4953114;28;20821;-73
2023/05/17 08:29:42;;;;;;;14.23;13.40;;;20.50;80.50;;;;;;4953391;29;20510;-75
2023/05/17 08:32:09;;;;;;;14.67;13.57;;;21.80;78.00;;;;;;4953665;29;20576;-75
2023/05/17 08:34:35;;;;;;;14.90;13.73;;;21.90;75.00;;;;;;4953814;29;20888;-75
2023/05/17 08:37:03;;;;;;;14.30;13.40;;;22.00;75.00;;;;;;4953349;29;20452;-74
2023/05/17 08:39:31;;;;;;;14.53;13.37;;;21.30;74.40;;;;;;4953701;29;20457;-74
2023/05/17 08:41:58;;;;;;;13.37;12.60;;;20.40;76.70;;;;;;4953830;29;20460;-74
2023/05/17 08:44:25;;;;;;;14.43;13.63;;;20.50;77.60;;;;;;4953696;29;20551;-74
2023/05/17 08:46:53;;;;;;;14.33;13.53;;;21.20;75.30;;;;;;4953102;29;20970;-74
2023/05/17 08:49:22;;;;;;;14.40;13.40;;;20.20;75.90;;;;;;4953195;29;20677;-73
2023/05/17 08:51:49;;;;;;;13.57;12.87;;;19.70;78.70;;;;;;4953204;29;20462;-74
2023/05/17 08:54:17;;;;;;;13.03;12.30;;;19.50;79.00;;;;;;4952872;29;20463;-73
2023/05/17 08:56:46;;;;;;;13.20;12.50;;;19.20;81.30;;;;;;4953129;29;20460;-74
2023/05/17 08:59:12;;;;;;;12.70;12.10;;;18.20;81.60;;;;;;4953230;29;20457;-72
2023/05/17 09:01:43;;;;;;;12.30;11.57;;;17.70;86.10;;;;;;4932336;29;20481;-74
2023/05/17 09:04:10;;;;;;;14.03;12.97;;;17.90;86.50;;;;;;4933894;29;20931;-75
2023/05/17 09:06:37;;;;;;;13.93;13.13;;;18.30;85.60;;;;;;4933643;29;20464;-73
2023/05/17 09:09:06;;;;;;;13.90;13.10;;;19.40;81.90;;;;;;4933127;29;20465;-73
2023/05/17 09:11:34;;;;;;;12.90;12.30;;;19.70;78.80;;;;;;4933238;29;20497;-73
2023/05/17 09:14:02;;;;;;;14.13;13.10;;;20.20;77.80;;;;;;4933246;29;20468;-74
2023/05/17 09:16:30;;;;;;;13.53;12.73;;;20.70;76.20;;;;;;4933083;29;20500;-74
2023/05/17 09:18:57;;;;;;;14.37;13.37;;;20.60;77.60;;;;;;4933255;29;20796;-74
2023/05/17 09:21:25;;;;;;;13.27;12.40;;;20.80;75.40;;;;;;4933214;29;20974;-74
2023/05/17 09:23:53;;;;;;;13.50;12.40;;;19.70;77.90;;;;;;4933216;29;20461;-73
2023/05/17 09:26:20;;;;;;;13.33;12.70;;;19.10;81.20;;;;;;4933158;29;20890;-74
2023/05/17 09:28:48;;;;;;;13.60;12.80;;;19.20;80.30;;;;;;4933001;29;20550;-74
2023/05/17 09:31:17;;;;;;;12.63;11.80;;;18.80;81.10;;;;;;4933318;29;20834;-74
2023/05/17 09:33:44;;;;;;;12.87;12.10;;;18.10;82.50;;;;;;4933198;29;20783;-73
2023/05/17 09:36:18;;;;;;;13.23;12.43;;;17.60;83.70;;;;;;4933162;29;20521;-73
2023/05/17 09:38:52;;;;;;;13.00;12.07;;;18.20;81.00;;;;;;4932384;29;20465;-74
2023/05/17 09:41:20;;;;;;;13.30;12.50;;;18.50;81.00;;;;;;4933153;29;20472;-73
2023/05/17 09:43:48;;;;;;;13.30;12.40;;;18.20;80.50;;;;;;4932924;29;20552;-73
2023/05/17 09:46:15;;;;;;;13.10;12.30;;;18.50;80.60;;;;;;4932983;29;20472;-72
2023/05/17 09:48:45;;;;;;;12.47;11.80;;;18.90;80.40;;;;;;4931849;29;20454;-73
2023/05/17 09:51:12;;;;;;;13.20;12.50;;;18.30;78.80;;;;;;4933305;29;20876;-72
2023/05/17 09:53:40;;;;;;;12.97;12.00;;;18.20;80.70;;;;;;4932936;29;20919;-71
2023/05/17 09:56:07;;;;;;;12.63;11.73;;;17.80;80.40;;;;;;4932918;29;20493;-72
2023/05/17 09:58:37;;;;;;;14.10;13.00;;;17.80;79.60;;;;;;4933200;29;20889;-71
2023/05/17 10:01:07;;;;;;;12.13;11.30;;;17.60;80.40;;;;;;4933279;29;20442;-71
2023/05/17 10:03:35;;;;;;;13.07;12.23;;;17.50;80.90;;;;;;4933050;29;20465;-73
2023/05/17 10:06:05;;;;;;;12.67;11.93;;;18.20;78.00;;;;;;4933106;29;20465;-73
2023/05/17 10:08:33;;;;;;;12.50;11.80;;;18.10;75.90;;;;;;4932631;29;20825;-73
2023/05/17 10:11:05;;;;;;;12.27;11.57;;;18.30;77.50;;;;;;4932927;29;20874;-72
2023/05/17 10:13:35;;;;;;;12.77;11.83;;;18.30;78.00;;;;;;4932759;29;20449;-73
2023/05/17 10:16:02;;;;;;;12.07;11.53;;;18.00;78.50;;;;;;4935915;29;20500;-73
2023/05/17 10:18:32;;;;;;;11.90;11.20;;;17.90;78.20;;;;;;4951962;29;20468;-74
2023/05/17 10:21:00;;;;;;;11.17;10.60;;;18.00;77.30;;;;;;4951706;29;20501;-72
2023/05/17 10:23:29;;;;;;;12.93;12.00;;;18.10;77.30;;;;;;4951990;29;20457;-72
2023/05/17 10:25:56;;;;;;;12.13;11.47;;;19.00;75.20;;;;;;4951882;29;20452;-72
2023/05/17 10:28:23;;;;;;;12.03;11.40;;;18.80;72.00;;;;;;4951142;28;20497;-73
2023/05/17 10:30:53;;;;;;;12.37;11.47;;;18.60;72.80;;;;;;4951442;29;20459;-72
2023/05/17 10:33:21;;;;;;;12.87;12.27;;;18.60;73.20;;;;;;4951399;29;20634;-72
2023/05/17 10:35:50;;;;;;;11.87;10.97;;;18.70;74.40;;;;;;4951166;29;20563;-71
2023/05/17 10:38:17;;;;;;;13.53;12.73;;;19.30;72.10;;;;;;4951425;29;20484;-74
2023/05/17 10:40:46;;;;;;;12.10;11.27;;;19.70;71.00;;;;;;4951729;29;20461;-72
2023/05/17 10:43:14;;;;;;;12.27;11.40;;;19.40;71.00;;;;;;4952039;29;20452;-72
2023/05/17 10:45:45;;;;;;;12.60;11.80;;;19.00;72.90;;;;;;4951963;29;20453;-73
2023/05/17 10:48:15;;;;;;;12.30;11.63;;;18.10;73.50;;;;;;4951402;28;20939;-71
2023/05/17 10:50:45;;;;;;;12.07;11.37;;;17.80;75.20;;;;;;4950852;29;20985;-71
2023/05/17 10:53:13;;;;;;;13.10;12.10;;;17.90;73.70;;;;;;4951387;29;20460;-71
2023/05/17 10:55:41;;;;;;;13.10;12.00;;;18.10;74.20;;;;;;4951138;29;20492;-70
2023/05/17 10:58:16;;;;;;;12.47;11.60;;;18.20;74.00;;;;;;4951015;29;20460;-71
2023/05/17 11:00:45;;;;;;;12.10;11.40;;;18.10;75.80;;;;;;4951289;29;20871;-70
2023/05/17 11:03:17;;;;;;;12.67;11.77;;;18.50;76.30;;;;;;4951435;29;20457;-73
2023/05/17 11:05:45;;;;;;;12.50;11.70;;;18.50;74.20;;;;;;4951613;29;20451;-71
2023/05/17 11:08:15;;;;;;;12.07;11.27;;;18.30;73.20;;;;;;4951413;29;20461;-72
2023/05/17 11:11:10;;;;;;;12.83;11.93;;;18.40;74.00;;;;;;4951338;29;20456;-71
2023/05/17 11:13:45;;;;;;;12.20;11.40;;;18.60;74.10;;;;;;4951194;29;20836;-72
2023/05/17 11:16:16;;;;;;;12.10;11.50;;;18.30;74.80;;;;;;4951342;29;20574;-72
2023/05/17 11:18:47;;;;;;;13.63;12.63;;;18.40;75.80;;;;;;4951090;29;20460;-72
2023/05/17 11:21:14;;;;;;;11.47;10.97;;;18.70;75.70;;;;;;4951021;29;20951;-71
2023/05/17 11:23:43;;;;;;;12.83;12.03;;;18.30;74.90;;;;;;4950588;29;20492;-71
2023/05/17 11:26:18;;;;;;;12.90;12.23;;;18.10;75.60;;;;;;4950513;29;20445;-71
2023/05/17 11:28:44;;;;;;;11.53;10.93;;;18.20;75.80;;;;;;4950383;28;20524;-72
2023/05/17 11:31:11;;;;;;;12.30;11.60;;;17.80;75.40;;;;;;4950658;29;20789;-72
2023/05/17 11:33:41;;;;;;;13.73;12.63;;;17.40;76.90;;;;;;4950359;29;20564;-73
2023/05/17 11:36:18;;;;;;;12.50;11.80;;;17.20;78.60;;;;;;4950221;29;20582;-76
2023/05/17 11:38:48;;;;;;;13.20;12.40;;;16.90;80.90;;;;;;4950533;29;20544;-73
2023/05/17 11:41:20;;;;;;;12.27;11.47;;;16.60;81.70;;;;;;4950420;29;20905;-73
2023/05/17 11:43:48;;;;;;;11.97;11.17;;;16.50;83.40;;;;;;4950335;29;20459;-73
2023/05/17 11:46:22;;;;;;;13.87;12.73;;;16.50;83.90;;;;;;4945169;29;20484;-73
2023/05/17 11:48:50;;;;;;;11.33;10.63;;;16.60;85.00;;;;;;4950285;29;20507;-74
2023/05/17 11:51:18;;;;;;;11.83;11.17;;;16.60;84.00;;;;;;4947735;29;20688;-74
2023/05/17 11:53:47;;;;;;;12.43;11.83;;;16.20;84.20;;;;;;4950034;29;20479;-73
2023/05/17 11:56:15;;;;;;;12.70;11.80;;;16.20;85.90;;;;;;4949973;29;20579;-73
2023/05/17 11:58:43;;;;;;;12.60;11.80;;;16.40;85.50;;;;;;4949270;29;20918;-73
2023/05/17 12:01:09;;;;;;;11.23;10.43;;;16.70;85.70;;;;;;4951888;28;20551;-73
2023/05/17 12:03:36;;;;;;;10.80;10.20;;;16.60;84.10;;;;;;4953429;29;20492;-73
2023/05/17 12:06:06;;;;;;;11.30;10.60;;;16.50;83.80;;;;;;4953359;29;20441;-73
2023/05/17 12:08:34;;;;;;;11.37;10.77;;;16.50;83.60;;;;;;4953187;29;20453;-73
2023/05/17 12:11:03;;;;;;;12.00;11.10;;;16.50;84.30;;;;;;4953281;29;20931;-74
2023/05/17 12:13:30;;;;;;;11.70;10.63;;;16.40;84.80;;;;;;4953397;29;20460;-73
2023/05/17 12:16:00;;;;;;;10.40;9.90;;;16.40;83.00;;;;;;4953372;29;20504;-73
2023/05/17 12:18:36;;;;;;;11.50;10.80;;;16.00;82.20;;;;;;4953303;29;20551;-73
2023/05/17 12:21:03;;;;;;;11.00;9.87;;;16.20;81.70;;;;;;4952593;29;20452;-73
2023/05/17 12:23:31;;;;;;;10.77;10.17;;;16.40;81.60;;;;;;4951228;29;20471;-73
2023/05/17 12:26:10;;;;;;;10.90;10.10;;;16.50;82.30;;;;;;4953269;29;20456;-73
2023/05/17 12:28:39;;;;;;;11.50;10.60;;;16.90;81.70;;;;;;4952846;28;20488;-73
2023/05/17 12:31:09;;;;;;;11.00;10.20;;;17.20;81.20;;;;;;4952839;29;20456;-73
2023/05/17 12:33:39;;;;;;;12.70;11.90;;;17.50;81.10;;;;;;4952977;29;20460;-74
2023/05/17 12:36:07;;;;;;;12.07;11.33;;;17.90;79.70;;;;;;4952982;29;20514;-73
2023/05/17 12:38:36;;;;;;;12.43;11.57;;;18.10;80.10;;;;;;4953210;29;20453;-73
2023/05/17 12:41:03;;;;;;;12.50;11.63;;;18.60;78.60;;;;;;4952793;29;20456;-73
2023/05/17 12:43:33;;;;;;;11.50;10.77;;;18.60;76.40;;;;;;4952881;29;20457;-73
2023/05/17 12:46:07;;;;;;;11.60;10.90;;;18.50;77.50;;;;;;4952673;29;20934;-74
2023/05/17 12:48:35;;;;;;;12.37;11.50;;;18.50;77.90;;;;;;4952631;29;20457;-74
2023/05/17 12:51:12;;;;;;;11.70;11.00;;;17.70;78.90;;;;;;4952538;29;20472;-74
2023/05/17 12:53:40;;;;;;;11.93;10.73;;;17.00;81.90;;;;;;4952523;29;20459;-73
2023/05/17 12:56:07;;;;;;;12.30;11.57;;;17.20;83.20;;;;;;4952342;29;20975;-74
2023/05/17 12:58:36;;;;;;;11.67;10.87;;;17.20;81.90;;;;;;4952229;29;20457;-73
2023/05/17 13:01:05;;;;;;;11.20;10.33;;;17.50;82.10;;;;;;4952142;29;20460;-73
2023/05/17 13:03:32;;;;;;;12.00;11.30;;;17.50;81.50;;;;;;4952634;29;20467;-74
2023/05/17 13:06:04;;;;;;;11.40;10.60;;;17.40;80.90;;;;;;4954254;29;20448;-73
2023/05/17 13:08:31;;;;;;;12.60;11.60;;;17.10;82.10;;;;;;4953855;29;21070;-73
2023/05/17 13:11:13;;;;;;;10.77;10.10;;;17.30;80.70;;;;;;4953613;29;20456;-72
2023/05/17 13:13:41;;;;;;;12.63;11.90;;;17.50;81.30;;;;;;4951778;29;20957;-74
2023/05/17 13:16:08;;;;;;;13.63;12.30;;;17.60;80.70;;;;;;4952392;29;20822;-73
2023/05/17 13:18:51;;;;;;;11.60;10.90;;;17.90;81.50;;;;;;4952227;29;20516;-73
2023/05/17 13:21:19;;;;;;;12.50;11.80;;;17.60;81.50;;;;;;4952409;29;20456;-73
2023/05/17 13:23:47;;;;;;;12.93;12.00;;;17.40;81.20;;;;;;4951976;29;20527;-73
2023/05/17 13:26:13;;;;;;;12.30;11.50;;;17.20;83.00;;;;;;4952316;29;20460;-73
2023/05/17 13:28:41;;;;;;;11.90;11.30;;;17.20;81.70;;;;;;4952270;28;20896;-73
2023/05/17 13:31:08;;;;;;;13.20;12.40;;;16.50;83.60;;;;;;4952401;29;20461;-72
2023/05/17 13:33:35;;;;;;;15.03;13.03;;;16.90;81.90;;;;;;4952164;29;20472;-70
2023/05/17 13:36:02;;;;;;;12.83;12.03;;;16.60;82.90;;;;;;4952339;29;20583;-74
2023/05/17 13:38:28;;;;;;;12.33;11.73;;;17.00;83.60;;;;;;4952438;29;20589;-74
2023/05/17 13:40:55;;;;;;;12.07;11.40;;;17.00;82.80;;;;;;4952672;29;20456;-74
2023/05/17 13:43:22;;;;;;;12.27;11.57;;;17.10;82.70;;;;;;4952540;29;20962;-73
2023/05/17 13:45:55;;;;;;;11.77;10.97;;;16.80;83.60;;;;;;4952321;29;20656;-73
2023/05/17 13:48:22;;;;;;;11.30;10.70;;;16.90;82.40;;;;;;4952135;29;20463;-73
2023/05/17 13:50:49;;;;;;;13.20;12.33;;;16.90;82.70;;;;;;4952048;29;20659;-73
2023/05/17 13:53:16;;;;;;;13.10;12.20;;;17.00;81.50;;;;;;4952092;29;20503;-73
2023/05/17 13:55:43;;;;;;;13.83;13.03;;;17.10;81.20;;;;;;4947263;29;20923;-73
2023/05/17 13:58:10;;;;;;;12.20;11.60;;;16.70;81.40;;;;;;4951508;29;20488;-74
2023/05/17 14:00:36;;;;;;;11.63;11.00;;;16.60;82.20;;;;;;4951593;29;20460;-75
2023/05/17 14:03:04;;;;;;;12.20;11.40;;;16.80;82.60;;;;;;4949635;29;20459;-73
2023/05/17 14:05:32;;;;;;;13.00;12.23;;;16.80;83.00;;;;;;4951610;29;20460;-74
2023/05/17 14:07:59;;;;;;;12.20;11.50;;;17.20;82.60;;;;;;4951704;29;21054;-73
2023/05/17 14:10:25;;;;;;;14.23;13.13;;;17.40;82.60;;;;;;4951521;29;20479;-73
2023/05/17 14:12:52;;;;;;;13.07;12.57;;;17.70;81.50;;;;;;4951096;29;20487;-74
2023/05/17 14:15:19;;;;;;;12.60;11.77;;;17.60;81.10;;;;;;4950498;29;20460;-74
2023/05/17 14:17:45;;;;;;;13.03;12.27;;;17.70;80.20;;;;;;4950633;29;20495;-74
2023/05/17 14:20:13;;;;;;;13.10;12.07;;;17.50;80.70;;;;;;4950837;29;20449;-74
2023/05/17 14:22:40;;;;;;;12.83;11.93;;;17.70;81.20;;;;;;4950658;29;20804;-74
2023/05/17 14:25:10;;;;;;;13.13;12.33;;;17.60;80.30;;;;;;4950495;28;20451;-75
2023/05/17 14:27:36;;;;;;;13.13;12.33;;;17.50;81.80;;;;;;4949841;28;20496;-74
2023/05/17 14:30:03;;;;;;;13.50;12.77;;;17.60;81.20;;;;;;4950335;29;20472;-73
2023/05/17 14:32:30;;;;;;;14.20;13.20;;;17.60;81.60;;;;;;4950224;29;20444;-74
2023/05/17 14:34:57;;;;;;;12.23;11.53;;;17.50;80.30;;;;;;4950487;29;20445;-74
2023/05/17 14:37:25;;;;;;;11.77;11.17;;;17.00;78.40;;;;;;4950281;29;20480;-75
2023/05/17 14:39:51;;;;;;;13.07;12.20;;;16.90;78.90;;;;;;4950285;29;20464;-73
2023/05/17 14:42:18;;;;;;;12.37;11.67;;;17.00;79.30;;;;;;4950402;29;20456;-74
2023/05/17 14:44:45;;;;;;;12.90;12.20;;;17.10;76.80;;;;;;4950759;29;20456;-74
2023/05/17 14:47:11;;;;;;;13.17;12.50;;;17.20;77.40;;;;;;4950871;29;20900;-73
2023/05/17 14:49:38;;;;;;;13.07;12.37;;;17.50;77.10;;;;;;4950513;29;20452;-74
2023/05/17 14:52:05;;;;;;;12.67;11.97;;;17.50;75.10;;;;;;4950317;29;20888;-73
2023/05/17 14:54:34;;;;;;;13.37;12.57;;;18.00;74.40;;;;;;4950208;29;20444;-73
2023/05/17 14:57:01;;;;;;;13.57;12.73;;;18.00;73.20;;;;;;4950249;29;20830;-74
2023/05/17 14:59:27;;;;;;;12.93;12.33;;;17.80;73.80;;;;;;4950633;29;20448;-74
2023/05/17 15:01:54;;;;;;;12.60;12.00;;;17.70;72.20;;;;;;4950235;29;20440;-74
2023/05/17 15:04:21;;;;;;;13.03;12.33;;;17.50;72.90;;;;;;4945000;29;20508;-74
2023/05/17 15:06:48;;;;;;;12.47;11.77;;;17.00;74.20;;;;;;4944911;29;20464;-74
2023/05/17 15:09:17;;;;;;;12.77;12.07;;;16.80;76.70;;;;;;4950577;29;20520;-73
2023/05/17 15:11:45;;;;;;;11.83;10.83;;;16.90;78.10;;;;;;4950986;29;20461;-71
2023/05/17 15:14:12;;;;;;;13.50;12.77;;;17.00;79.10;;;;;;4950855;29;20460;-74
2023/05/17 15:16:39;;;;;;;13.50;12.80;;;16.80;79.30;;;;;;4950700;29;20484;-74
2023/05/17 15:19:06;;;;;;;14.27;13.23;;;16.60;81.00;;;;;;4949444;29;20480;-74
2023/05/17 15:21:33;;;;;;;12.20;11.50;;;16.60;82.40;;;;;;4950034;29;20543;-75
2023/05/17 15:24:00;;;;;;;12.63;11.97;;;16.40;82.50;;;;;;4950585;29;20452;-75
2023/05/17 15:26:26;;;;;;;13.03;12.33;;;16.30;82.70;;;;;;4950606;29;20460;-75
2023/05/17 15:28:54;;;;;;;15.10;14.20;;;16.30;82.20;;;;;;4950224;28;20488;-74
2023/05/17 15:31:23;;;;;;;12.30;11.50;;;15.80;82.80;;;;;;4950470;29;20956;-75
2023/05/17 15:33:49;;;;;;;12.00;11.40;;;15.70;84.50;;;;;;4950570;29;20748;-75
2023/05/17 15:36:16;;;;;;;12.53;11.93;;;15.80;85.00;;;;;;4952584;28;20816;-74
2023/05/17 15:38:43;;;;;;;10.57;10.07;;;15.80;83.60;;;;;;4954424;29;20602;-74
2023/05/17 15:41:13;;;;;;;15.17;13.97;;;15.60;84.60;;;;;;4954292;29;20484;-74
2023/05/17 15:43:40;;;;;;;11.53;10.97;;;15.50;84.30;;;;;;4954313;29;20473;-74
2023/05/17 15:46:08;;;;;;;12.10;11.40;;;15.30;85.50;;;;;;4953896;29;20467;-74
2023/05/17 15:48:35;;;;;;;12.43;11.83;;;15.50;85.20;;;;;;4954008;29;20974;-74
2023/05/17 15:51:02;;;;;;;11.80;11.10;;;15.60;85.40;;;;;;4953891;29;20464;-74
2023/05/17 15:53:29;;;;;;;13.03;12.13;;;15.70;84.30;;;;;;4954013;29;20467;-74
2023/05/17 15:55:56;;;;;;;12.00;11.40;;;15.90;84.80;;;;;;4954085;29;20456;-75
2023/05/17 15:58:26;;;;;;;11.90;11.10;;;15.90;85.10;;;;;;4953649;29;20832;-74